TAF KVLD
KVLD 072331Z 0800/0824 VRB03KT P6SM VCSH OVC020 FM080300 00000KT 3SM BR OVC003 FM080900 00000KT 1/2SM FG VCSH OVC005 FM081300 24005KT 2SM BR VCSH OVC008 FM081500 26010KT 5SM SHRA BR OVC015 FM082200 31005KT P6SM BKN030=
METAR KVLD
WC KVLD
WS KVLD
WV KVLD